Kennett, Missouri
Current Conditions -  °F | °C
As of 11:53 PM on Sunday 25 Jan 2015 (Local Time) from KHKA Reporting Station
Overcast Overcast  
Wind Chill: 30°   Ceiling: 2900
Heat Index: 40°   Visibility: 10mi
Dew Point: 35°   Wind: 22mph
Humidity: 83%   Direction: 350°N
Pressure: 29.95"   Gusts: NA
Location:  36.24°N, 90.05°W
Report Text: KHKA 260553Z AUTO 35019KT 10SM OVC029 04/02 A2995 RMK AO2 PK WND 34029/0533 SLP144 60000 T00440017 10083 20044 401110039 53030
Loading
Personal Weather Stations






























Interactive Weather Map New forecast layout! Learn more

10-Day Weather Forecast

Advertisements
Track Severe Weather on mobile